createdAt,value
2022-10-22T00:01:04.759Z,98619.34
2022-10-22T00:03:32.315Z,98622.78
2022-10-22T00:06:00.428Z,98618.13
2022-10-22T00:08:27.917Z,98614.97
2022-10-22T00:10:55.549Z,98620.19
2022-10-22T00:13:23.588Z,98614.09
2022-10-22T00:15:50.716Z,98602.97
2022-10-22T00:18:17.805Z,98604.47
2022-10-22T00:20:44.893Z,98612.31
2022-10-22T00:23:11.982Z,98598.19
2022-10-22T00:25:39.395Z,98604.25
2022-10-22T00:28:06.773Z,98613.41
2022-10-22T00:30:33.891Z,98604.16
2022-10-22T00:33:01.082Z,98597.75
2022-10-22T00:35:28.225Z,98609.28
2022-10-22T00:37:55.648Z,98602.94
2022-10-22T00:40:23.331Z,98609.44
2022-10-22T00:42:50.623Z,98595.44
2022-10-22T00:45:24.104Z,98596.41
2022-10-22T00:48:00.309Z,98588.34
2022-10-22T00:50:34.334Z,98592.72
2022-10-22T00:53:06.940Z,98579.72
2022-10-22T00:55:34.816Z,98577.34
2022-10-22T00:58:02.958Z,98579.72
2022-10-22T01:00:31.165Z,98575.81
2022-10-22T01:02:59.407Z,98568.66
2022-10-22T01:05:43.624Z,98570.75
2022-10-22T01:08:35.357Z,98591.03
2022-10-22T01:11:42.761Z,98593.75
2022-10-22T01:14:26.260Z,98590.94
2022-10-22T01:17:08.273Z,98598.53
2022-10-22T01:20:54.665Z,98608.16
2022-10-22T01:24:03.584Z,98590.78
2022-10-22T01:26:57.347Z,98589.81
2022-10-22T01:30:02.802Z,98583.06
2022-10-22T01:32:39.952Z,98581.44
2022-10-22T01:35:13.142Z,98574.00
2022-10-22T01:37:54.526Z,98585.13
2022-10-22T01:40:23.933Z,98578.13
2022-10-22T01:43:03.696Z,98572.03
2022-10-22T01:45:42.445Z,98561.66
2022-10-22T01:48:30.810Z,98553.44
2022-10-22T01:51:50.275Z,98546.81
2022-10-22T01:55:01.659Z,98551.91
2022-10-22T01:58:23.108Z,98558.66
2022-10-22T02:01:46.397Z,98560.63
2022-10-22T02:04:44.719Z,98560.63
2022-10-22T02:07:17.589Z,98556.47
2022-10-22T02:09:46.845Z,98552.56
2022-10-22T02:12:16.434Z,98568.56
2022-10-22T02:14:45.773Z,98578.13
2022-10-22T02:17:19.253Z,98577.69
2022-10-22T02:20:01.858Z,98589.00
2022-10-22T02:22:30.057Z,98576.06
2022-10-22T02:24:57.445Z,98585.84
2022-10-22T02:27:51.369Z,98602.34
2022-10-22T02:30:22.403Z,98613.97
2022-10-22T02:33:11.812Z,98603.63
2022-10-22T02:35:42.333Z,98597.22
2022-10-22T02:38:11.636Z,98595.78
2022-10-22T02:40:39.495Z,98598.19
2022-10-22T02:43:07.228Z,98599.28
2022-10-22T02:45:35.017Z,98598.81
2022-10-22T02:48:03.437Z,98604.44
2022-10-22T02:50:30.680Z,98609.66
2022-10-22T02:52:57.783Z,98608.16
2022-10-22T02:55:25.383Z,98599.88
2022-10-22T02:57:52.830Z,98594.25
2022-10-22T03:00:20.398Z,98594.38
2022-10-22T03:02:47.554Z,98599.41
2022-10-22T03:05:14.639Z,98606.63
2022-10-22T03:07:42.231Z,98609.50
2022-10-22T03:10:09.951Z,98601.56
2022-10-22T03:12:37.027Z,98601.13
2022-10-22T03:15:05.108Z,98605.56
2022-10-22T03:17:32.203Z,98601.22
2022-10-22T03:19:59.273Z,98595.47
2022-10-22T03:22:32.590Z,98598.78
2022-10-22T03:25:07.941Z,98580.47
2022-10-22T03:27:39.066Z,98573.94
2022-10-22T03:30:08.669Z,98573.75
2022-10-22T03:32:35.755Z,98574.50
2022-10-22T03:35:06.154Z,98576.88
2022-10-22T03:37:35.514Z,98564.63
2022-10-22T03:40:06.408Z,98550.09
2022-10-22T03:42:33.702Z,98549.91
2022-10-22T03:45:00.834Z,98551.66
2022-10-22T03:47:28.048Z,98550.50
2022-10-22T03:49:55.143Z,98568.19
2022-10-22T03:52:22.248Z,98573.06
2022-10-22T03:54:49.378Z,98569.44
2022-10-22T03:57:16.534Z,98574.44
2022-10-22T03:59:46.762Z,98591.41
2022-10-22T04:02:14.592Z,98577.13
2022-10-22T04:04:41.822Z,98587.50
2022-10-22T04:07:09.324Z,98578.59
2022-10-22T04:09:39.194Z,98569.00
2022-10-22T04:12:07.956Z,98567.78
2022-10-22T04:14:35.172Z,98571.28
2022-10-22T04:17:02.387Z,98571.38
2022-10-22T04:19:29.679Z,98564.06
2022-10-22T04:21:59.843Z,98568.88
2022-10-22T04:24:27.335Z,98583.69
2022-10-22T04:26:55.794Z,98592.84
2022-10-22T04:29:23.845Z,98605.94
2022-10-22T04:31:51.111Z,98599.00
2022-10-22T04:34:18.269Z,98604.00
2022-10-22T04:36:45.519Z,98609.19
2022-10-22T04:39:37.576Z,98594.38
2022-10-22T04:42:05.868Z,98584.78
2022-10-22T04:44:33.374Z,98576.75
2022-10-22T04:47:00.526Z,98585.75
2022-10-22T04:49:33.870Z,98586.19
2022-10-22T04:52:03.435Z,98577.06
2022-10-22T04:54:33.096Z,98595.72
2022-10-22T04:57:00.524Z,98599.19
2022-10-22T04:59:27.822Z,98604.53
2022-10-22T05:01:55.443Z,98607.09
2022-10-22T05:04:22.566Z,98602.88
2022-10-22T05:06:49.810Z,98606.31
2022-10-22T05:09:21.121Z,98611.53
2022-10-22T05:11:52.360Z,98621.88
2022-10-22T05:14:25.269Z,98622.13
2022-10-22T05:16:53.504Z,98622.34
2022-10-22T05:19:30.991Z,98617.84
2022-10-22T05:22:02.784Z,98621.75
2022-10-22T05:24:33.477Z,98620.63
2022-10-22T05:27:01.189Z,98620.84
2022-10-22T05:29:28.548Z,98624.53
2022-10-22T05:31:56.121Z,98638.28
2022-10-22T05:34:23.319Z,98644.25
2022-10-22T05:36:54.437Z,98645.63
2022-10-22T05:39:22.082Z,98652.59
2022-10-22T05:41:49.363Z,98663.69
2022-10-22T05:44:16.528Z,98674.47
2022-10-22T05:47:32.020Z,98686.28
2022-10-22T05:52:00.438Z,98695.94
2022-10-22T05:56:28.013Z,98712.16
2022-10-22T05:58:57.255Z,98720.00
2022-10-22T06:01:30.318Z,98715.72
2022-10-22T06:04:03.067Z,98724.75
2022-10-22T06:06:49.381Z,98727.88
2022-10-22T06:09:31.339Z,98725.16
2022-10-22T06:11:59.356Z,98730.44
2022-10-22T06:14:28.702Z,98728.38
2022-10-22T06:16:55.966Z,98733.41
2022-10-22T06:19:26.733Z,98743.09
2022-10-22T06:21:54.455Z,98740.84
2022-10-22T06:24:21.780Z,98748.78
2022-10-22T06:26:53.326Z,98751.75
2022-10-22T06:29:21.084Z,98749.69
2022-10-22T06:31:48.995Z,98753.94
2022-10-22T06:34:18.815Z,98760.50
2022-10-22T06:37:12.101Z,98764.91
2022-10-22T06:39:39.230Z,98778.94
2022-10-22T06:42:06.407Z,98777.34
2022-10-22T06:44:35.232Z,98784.88
2022-10-22T06:47:02.431Z,98777.31
2022-10-22T06:49:29.530Z,98788.34
2022-10-22T06:52:21.702Z,98784.59
2022-10-22T06:54:48.797Z,98778.63
2022-10-22T06:57:15.913Z,98786.38
2022-10-22T06:59:42.977Z,98793.13
2022-10-22T07:02:10.806Z,98799.06
2022-10-22T07:04:38.044Z,98800.53
2022-10-22T07:07:05.140Z,98802.78
2022-10-22T07:09:32.228Z,98799.16
2022-10-22T07:11:59.297Z,98811.78
2022-10-22T07:14:26.430Z,98807.38
2022-10-22T07:16:53.562Z,98816.09
2022-10-22T07:19:20.662Z,98815.16
2022-10-22T07:21:47.823Z,98817.31
2022-10-22T07:24:14.926Z,98816.44
2022-10-22T07:26:42.498Z,98826.25
2022-10-22T07:29:10.091Z,98825.38
2022-10-22T07:31:37.225Z,98822.75
2022-10-22T07:34:04.430Z,98831.06
2022-10-22T07:36:31.573Z,98831.28
2022-10-22T07:39:00.731Z,98833.91
2022-10-22T07:41:30.562Z,98831.94
2022-10-22T07:43:59.037Z,98828.03
2022-10-22T07:46:26.957Z,98829.16
2022-10-22T07:48:54.547Z,98829.78
2022-10-22T07:51:21.994Z,98830.22
2022-10-22T07:53:49.334Z,98836.41
2022-10-22T07:56:17.734Z,98830.88
2022-10-22T07:58:45.020Z,98835.22
2022-10-22T08:01:12.341Z,98845.66
2022-10-22T08:03:39.772Z,98849.34
2022-10-22T08:06:07.959Z,98848.47
2022-10-22T08:08:35.314Z,98857.09
2022-10-22T08:11:02.855Z,98861.97
2022-10-22T08:13:30.878Z,98857.44
2022-10-22T08:16:00.852Z,98857.19
2022-10-22T08:18:28.235Z,98863.22
2022-10-22T08:20:55.551Z,98859.69
2022-10-22T08:23:26.013Z,98857.56
2022-10-22T08:25:55.388Z,98851.22
2022-10-22T08:28:22.834Z,98844.72
2022-10-22T08:30:50.770Z,98845.94
2022-10-22T08:33:18.451Z,98845.63
2022-10-22T08:35:53.067Z,98836.31
2022-10-22T08:38:27.429Z,98846.22
2022-10-22T08:41:15.225Z,98847.75
2022-10-22T08:44:07.131Z,98847.31
2022-10-22T08:47:13.122Z,98849.53
2022-10-22T08:49:43.345Z,98835.91
2022-10-22T08:52:19.015Z,98844.81
2022-10-22T08:54:54.366Z,98847.81
2022-10-22T08:57:54.066Z,98842.34
2022-10-22T09:00:25.354Z,98849.53
2022-10-22T09:03:36.575Z,98855.50
2022-10-22T09:06:14.361Z,98849.53
2022-10-22T09:08:45.844Z,98855.00
2022-10-22T09:11:12.942Z,98853.00
2022-10-22T09:13:46.333Z,98855.50
2022-10-22T09:16:42.883Z,98867.06
2022-10-22T09:19:51.397Z,98861.72
2022-10-22T09:25:27.450Z,98867.66
2022-10-22T09:27:58.253Z,98871.66
2022-10-22T09:30:31.852Z,98870.59
2022-10-22T09:33:26.008Z,98864.09
2022-10-22T09:36:03.630Z,98868.53
2022-10-22T09:38:41.815Z,98868.69
2022-10-22T09:41:09.723Z,98864.53
2022-10-22T09:43:37.119Z,98868.78
2022-10-22T09:46:17.151Z,98867.22
2022-10-22T09:48:51.869Z,98876.59
2022-10-22T09:51:36.501Z,98871.28
2022-10-22T09:54:32.071Z,98872.47
2022-10-22T09:57:18.026Z,98871.00
2022-10-22T09:59:50.195Z,98880.28
2022-10-22T10:02:37.505Z,98874.34
2022-10-22T10:05:08.554Z,98875.28
2022-10-22T10:07:36.987Z,98879.50
2022-10-22T10:10:40.046Z,98883.69
2022-10-22T10:13:30.166Z,98878.66
2022-10-22T10:16:16.080Z,98883.34
2022-10-22T10:19:45.378Z,98887.94
2022-10-22T10:22:58.617Z,98885.72
2022-10-22T10:25:55.844Z,98887.75
2022-10-22T10:28:56.881Z,98893.13
2022-10-22T10:32:03.139Z,98880.19
2022-10-22T10:35:12.865Z,98895.72
2022-10-22T10:38:19.468Z,98895.91
2022-10-22T10:41:43.545Z,98901.09
2022-10-22T10:44:47.412Z,98898.19
2022-10-22T10:48:06.902Z,98901.22
2022-10-22T10:51:51.587Z,98902.78
2022-10-22T10:54:45.179Z,98897.94
2022-10-22T10:57:29.343Z,98901.13
2022-10-22T11:00:21.110Z,98908.88
2022-10-22T11:03:39.805Z,98896.66
2022-10-22T11:06:12.797Z,98898.78
2022-10-22T11:08:49.920Z,98898.25
2022-10-22T11:11:55.948Z,98900.16
2022-10-22T11:14:38.032Z,98893.28
2022-10-22T11:17:23.061Z,98893.88
2022-10-22T11:20:24.185Z,98891.97
2022-10-22T11:23:23.049Z,98887.72
2022-10-22T11:25:50.963Z,98895.28
2022-10-22T11:28:39.482Z,98887.22
2022-10-22T11:31:16.058Z,98891.81
2022-10-22T11:34:32.693Z,98887.38
2022-10-22T11:37:05.068Z,98888.25
2022-10-22T11:39:50.967Z,98890.00
2022-10-22T11:42:23.728Z,98888.91
2022-10-22T11:45:14.210Z,98883.06
2022-10-22T11:48:10.469Z,98883.66
2022-10-22T11:50:57.460Z,98874.00
2022-10-22T11:53:37.536Z,98870.03
2022-10-22T11:56:07.776Z,98874.53
2022-10-22T11:58:39.256Z,98871.22
2022-10-22T12:01:09.473Z,98872.41
2022-10-22T12:03:59.070Z,98872.25
2022-10-22T12:06:28.901Z,98861.66
2022-10-22T12:09:04.904Z,98864.56
2022-10-22T12:11:50.582Z,98860.16
2022-10-22T12:14:27.938Z,98857.16
2022-10-22T12:17:05.204Z,98873.25
2022-10-22T12:19:46.670Z,98861.81
2022-10-22T12:22:23.358Z,98860.75
2022-10-22T12:24:54.605Z,98857.72
2022-10-22T12:27:34.656Z,98853.44
2022-10-22T12:30:18.096Z,98854.41
2022-10-22T12:32:46.240Z,98857.22
2022-10-22T12:35:24.137Z,98846.19
2022-10-22T12:38:02.668Z,98855.91
2022-10-22T12:40:34.755Z,98850.59
2022-10-22T12:43:19.453Z,98852.38
2022-10-22T12:45:50.267Z,98847.47
2022-10-22T12:48:28.766Z,98846.59
2022-10-22T12:51:03.849Z,98844.19
2022-10-22T12:53:35.339Z,98842.84
2022-10-22T12:56:21.395Z,98840.69
2022-10-22T12:59:20.878Z,98841.81
2022-10-22T13:01:51.474Z,98850.59
2022-10-22T13:04:38.201Z,98844.81
2022-10-22T13:07:18.337Z,98848.00
2022-10-22T13:10:00.204Z,98847.09
2022-10-22T13:12:36.498Z,98840.31
2022-10-22T13:15:35.198Z,98846.03
2022-10-22T13:18:06.335Z,98848.34
2022-10-22T13:20:37.271Z,98834.09
2022-10-22T13:23:06.361Z,98840.94
2022-10-22T13:25:39.655Z,98832.75
2022-10-22T13:28:06.866Z,98832.47
2022-10-22T13:30:38.492Z,98832.38
2022-10-22T13:33:26.326Z,98837.22
2022-10-22T13:35:56.509Z,98835.09
2022-10-22T13:38:29.223Z,98836.41
2022-10-22T13:40:57.446Z,98830.91
2022-10-22T13:43:25.645Z,98830.25
2022-10-22T13:45:59.154Z,98830.50
2022-10-22T13:48:29.263Z,98832.75
2022-10-22T13:50:56.589Z,98833.09
2022-10-22T13:53:51.681Z,98829.69
2022-10-22T13:56:21.942Z,98832.75
2022-10-22T13:58:50.476Z,98837.47
2022-10-22T14:01:26.508Z,98839.78
2022-10-22T14:03:58.376Z,98829.34
2022-10-22T14:06:29.862Z,98834.19
2022-10-22T14:09:03.624Z,98836.03
2022-10-22T14:11:32.520Z,98830.41
2022-10-22T14:13:59.760Z,98830.31
2022-10-22T14:16:31.172Z,98833.09
2022-10-22T14:18:59.577Z,98834.75
2022-10-22T14:21:30.507Z,98835.13
2022-10-22T14:23:57.653Z,98826.03
2022-10-22T14:26:32.810Z,98821.59
2022-10-22T14:29:09.481Z,98819.91
2022-10-22T14:31:44.034Z,98823.91
2022-10-22T14:34:15.851Z,98830.19
2022-10-22T14:36:43.817Z,98830.75
2022-10-22T14:39:13.099Z,98830.53
2022-10-22T14:41:42.445Z,98825.53
2022-10-22T14:44:14.240Z,98829.53
2022-10-22T14:46:43.876Z,98829.97
2022-10-22T14:49:11.075Z,98834.38
2022-10-22T14:51:38.481Z,98831.44
2022-10-22T14:54:05.852Z,98833.75
2022-10-22T14:56:33.754Z,98840.00
2022-10-22T14:59:01.046Z,98837.53
2022-10-22T15:01:28.224Z,98834.03
2022-10-22T15:03:55.357Z,98829.84
2022-10-22T15:06:22.865Z,98836.34
2022-10-22T15:08:50.797Z,98840.69
2022-10-22T15:11:18.089Z,98836.94
2022-10-22T15:13:45.306Z,98839.69
2022-10-22T15:16:16.495Z,98842.69
2022-10-22T15:18:43.685Z,98835.69
2022-10-22T15:21:19.416Z,98845.47
2022-10-22T15:23:48.360Z,98846.13
2022-10-22T15:26:16.255Z,98846.75
2022-10-22T15:28:44.297Z,98838.78
2022-10-22T15:31:15.164Z,98838.97
2022-10-22T15:33:43.826Z,98836.34
2022-10-22T15:36:17.013Z,98830.47
2022-10-22T15:38:44.101Z,98836.16
2022-10-22T15:41:13.449Z,98836.91
2022-10-22T15:43:40.727Z,98825.38
2022-10-22T15:46:19.791Z,98825.13
2022-10-22T15:48:46.971Z,98826.50
2022-10-22T15:51:18.746Z,98826.47
2022-10-22T15:53:56.929Z,98829.59
2022-10-22T15:56:27.813Z,98828.75
2022-10-22T15:59:00.926Z,98835.97
2022-10-22T16:01:28.650Z,98832.31
2022-10-22T16:04:02.833Z,98836.94
2022-10-22T16:06:48.585Z,98829.44
2022-10-22T16:09:20.780Z,98831.75
2022-10-22T16:11:49.214Z,98826.97
2022-10-22T16:14:20.209Z,98838.09
2022-10-22T16:16:53.069Z,98838.91
2022-10-22T16:19:25.431Z,98844.47
2022-10-22T16:21:55.796Z,98843.63
2022-10-22T16:24:23.506Z,98844.41
2022-10-22T16:26:52.627Z,98840.69
2022-10-22T16:29:20.299Z,98832.75
2022-10-22T16:31:47.635Z,98840.72
2022-10-22T16:34:14.853Z,98846.16
2022-10-22T16:36:42.231Z,98830.28
2022-10-22T16:39:10.041Z,98842.13
2022-10-22T16:41:37.358Z,98845.25
2022-10-22T16:44:08.682Z,98840.56
2022-10-22T16:46:39.857Z,98848.91
2022-10-22T16:49:07.938Z,98857.97
2022-10-22T16:51:35.855Z,98857.72
2022-10-22T16:54:05.552Z,98865.13
2022-10-22T16:56:36.567Z,98870.75
2022-10-22T16:59:04.716Z,98872.41
2022-10-22T17:01:34.002Z,98864.16
2022-10-22T17:04:03.994Z,98873.47
2022-10-22T17:06:31.413Z,98873.25
2022-10-22T17:08:59.100Z,98878.13
2022-10-22T17:11:26.441Z,98876.56
2022-10-22T17:13:54.714Z,98872.47
2022-10-22T17:16:24.989Z,98879.31
2022-10-22T17:18:55.022Z,98882.81
2022-10-22T17:21:23.787Z,98883.81
2022-10-22T17:23:58.380Z,98881.06
2022-10-22T17:26:29.074Z,98878.69
2022-10-22T17:28:56.639Z,98883.75
2022-10-22T17:31:34.210Z,98885.03
2022-10-22T17:34:01.826Z,98886.25
2022-10-22T17:36:34.866Z,98887.47
2022-10-22T17:39:07.619Z,98898.38
2022-10-22T17:41:37.814Z,98904.84
2022-10-22T17:44:12.143Z,98900.75
2022-10-22T17:46:39.702Z,98908.09
2022-10-22T17:49:18.053Z,98907.63
2022-10-22T17:51:46.202Z,98910.38
2022-10-22T17:54:14.609Z,98921.94
2022-10-22T17:56:42.047Z,98921.25
2022-10-22T17:59:15.830Z,98922.88
2022-10-22T18:01:45.801Z,98916.94
2022-10-22T18:04:20.086Z,98923.75
2022-10-22T18:06:50.053Z,98917.88
2022-10-22T18:09:19.391Z,98918.22
2022-10-22T18:11:49.767Z,98925.31
2022-10-22T18:14:20.889Z,98921.72
2022-10-22T18:16:48.899Z,98927.28
2022-10-22T18:19:22.513Z,98923.59
2022-10-22T18:21:50.517Z,98920.78
2022-10-22T18:24:18.480Z,98917.59
2022-10-22T18:26:46.237Z,98921.84
2022-10-22T18:29:18.422Z,98920.53
2022-10-22T18:31:47.299Z,98917.28
2022-10-22T18:34:16.551Z,98910.13
2022-10-22T18:36:46.200Z,98912.69
2022-10-22T18:39:38.504Z,98917.28
2022-10-22T18:42:07.144Z,98906.28
2022-10-22T18:44:35.800Z,98905.50
2022-10-22T18:49:54.811Z,98910.75
2022-10-22T18:52:25.031Z,98908.34
2022-10-22T18:54:52.173Z,98908.91
2022-10-22T18:57:19.354Z,98914.97
2022-10-22T18:59:46.574Z,98911.81
2022-10-22T19:02:17.061Z,98905.47
2022-10-22T19:04:45.371Z,98907.97
2022-10-22T19:07:12.717Z,98912.84
2022-10-22T19:09:42.448Z,98906.53
2022-10-22T19:12:10.290Z,98911.75
2022-10-22T19:14:39.810Z,98914.03
2022-10-22T19:17:07.158Z,98919.56
2022-10-22T19:19:34.991Z,98909.34
2022-10-22T19:22:02.155Z,98915.41
2022-10-22T19:24:29.700Z,98913.97
2022-10-22T19:26:57.011Z,98918.84
2022-10-22T19:29:24.201Z,98916.50
2022-10-22T19:31:51.487Z,98914.75
2022-10-22T19:34:20.155Z,98918.72
2022-10-22T19:37:13.320Z,98919.94
2022-10-22T19:39:40.705Z,98927.38
2022-10-22T19:42:07.927Z,98915.94
2022-10-22T19:44:35.015Z,98922.94
2022-10-22T19:47:02.129Z,98914.53
2022-10-22T19:49:35.168Z,98919.03
2022-10-22T19:52:02.679Z,98914.41
2022-10-22T19:54:30.150Z,98906.25
2022-10-22T19:56:57.347Z,98908.72
2022-10-22T19:59:28.666Z,98897.94
2022-10-22T20:01:58.443Z,98905.66
2022-10-22T20:04:27.962Z,98913.50
2022-10-22T20:06:55.532Z,98919.13
2022-10-22T20:09:22.706Z,98918.56
2022-10-22T20:11:50.136Z,98916.53
2022-10-22T20:14:17.305Z,98925.69
2022-10-22T20:16:44.615Z,98915.31
2022-10-22T20:19:19.009Z,98920.84
2022-10-22T20:26:31.282Z,98929.66
2022-10-22T20:29:18.587Z,98933.44
2022-10-22T20:31:59.708Z,98930.16
2022-10-22T20:34:29.793Z,98933.16
2022-10-22T20:36:59.273Z,98927.56
2022-10-22T20:39:40.151Z,98931.53
2022-10-22T20:42:07.389Z,98930.97
2022-10-22T20:44:34.683Z,98932.91
2022-10-22T20:47:01.860Z,98931.06
2022-10-22T20:49:36.399Z,98926.00
2022-10-22T20:52:03.629Z,98929.50
2022-10-22T20:54:30.727Z,98937.25
2022-10-22T20:56:58.339Z,98937.44
2022-10-22T20:59:32.505Z,98936.50
2022-10-22T21:02:03.323Z,98931.16
2022-10-22T21:04:31.385Z,98924.78
2022-10-22T21:06:58.574Z,98929.22
2022-10-22T21:09:25.778Z,98923.41
2022-10-22T21:14:26.227Z,98922.34
2022-10-22T21:16:53.474Z,98919.81
2022-10-22T21:19:22.565Z,98921.56
2022-10-22T21:21:50.033Z,98918.28
2022-10-22T21:24:17.892Z,98924.78
2022-10-22T21:26:45.582Z,98914.81
2022-10-22T21:29:13.531Z,98905.28
2022-10-22T21:31:40.912Z,98905.50
2022-10-22T21:34:08.325Z,98910.13
2022-10-22T21:36:35.582Z,98911.09
2022-10-22T21:39:03.257Z,98921.66
2022-10-22T21:41:30.507Z,98923.91
2022-10-22T21:43:58.173Z,98915.34
2022-10-22T21:46:28.415Z,98915.84
2022-10-22T21:49:01.952Z,98913.78
2022-10-22T21:51:33.584Z,98917.06
2022-10-22T21:54:01.019Z,98920.84
2022-10-22T21:56:33.828Z,98923.28
2022-10-22T21:59:04.729Z,98923.63
2022-10-22T22:01:33.114Z,98920.75
2022-10-22T22:04:00.918Z,98915.63
2022-10-22T22:06:33.433Z,98919.13
2022-10-22T22:09:03.983Z,98917.50
2022-10-22T22:11:31.996Z,98918.34
2022-10-22T22:14:00.331Z,98920.09
2022-10-22T22:16:32.739Z,98923.41
2022-10-22T22:19:06.693Z,98911.41
2022-10-22T22:21:36.410Z,98915.88
2022-10-22T22:24:04.357Z,98916.66
2022-10-22T22:26:32.569Z,98911.06
2022-10-22T22:29:01.181Z,98911.78
2022-10-22T22:31:33.408Z,98916.75
2022-10-22T22:34:12.662Z,98917.94
2022-10-22T22:36:53.597Z,98915.66
2022-10-22T22:39:23.543Z,98914.63
2022-10-22T22:41:51.534Z,98914.47
2022-10-22T22:44:18.859Z,98915.00
2022-10-22T22:46:46.190Z,98912.69
2022-10-22T22:49:14.492Z,98914.81
2022-10-22T22:51:43.391Z,98917.28
2022-10-22T22:54:11.307Z,98914.00
2022-10-22T22:56:39.158Z,98901.75
2022-10-22T22:59:06.908Z,98909.53
2022-10-22T23:01:38.269Z,98902.38
2022-10-22T23:04:13.030Z,98898.97
2022-10-22T23:06:40.701Z,98901.41
2022-10-22T23:09:12.350Z,98900.44
2022-10-22T23:11:42.502Z,98891.44
2022-10-22T23:14:14.707Z,98888.03
2022-10-22T23:16:50.068Z,98890.41
2022-10-22T23:19:22.171Z,98888.78
2022-10-22T23:21:56.527Z,98892.53
2022-10-22T23:24:28.964Z,98880.22
2022-10-22T23:27:02.388Z,98876.47
2022-10-22T23:29:34.279Z,98867.16
2022-10-22T23:32:05.186Z,98857.06
2022-10-22T23:34:33.011Z,98866.09
2022-10-22T23:37:00.695Z,98862.72
2022-10-22T23:39:29.633Z,98866.81
2022-10-22T23:41:58.145Z,98869.16
2022-10-22T23:44:25.935Z,98868.28
2022-10-22T23:46:53.285Z,98874.22
2022-10-22T23:49:20.789Z,98874.22
2022-10-22T23:51:47.929Z,98877.72
2022-10-22T23:54:18.554Z,98870.22
2022-10-22T23:56:46.843Z,98871.25
